sensor_id;sensor_type;location;lat;lon;timestamp;temperature;humidity
3940;DHT22;1984;48.312;9.244;2023-02-28T00:00:06;-2.90;99.90
3940;DHT22;1984;48.312;9.244;2023-02-28T00:02:40;-2.90;99.90
3940;DHT22;1984;48.312;9.244;2023-02-28T00:05:07;-2.90;99.90
3940;DHT22;1984;48.312;9.244;2023-02-28T00:07:33;-2.90;99.90
3940;DHT22;1984;48.312;9.244;2023-02-28T00:09:59;-3.00;99.90
3940;DHT22;1984;48.312;9.244;2023-02-28T00:12:25;-3.00;99.90
3940;DHT22;1984;48.312;9.244;2023-02-28T00:14:51;-3.00;99.90
3940;DHT22;1984;48.312;9.244;2023-02-28T00:17:17;-3.00;99.90
3940;DHT22;1984;48.312;9.244;2023-02-28T00:19:50;-3.00;99.90
3940;DHT22;1984;48.312;9.244;2023-02-28T00:22:17;-2.90;99.90
3940;DHT22;1984;48.312;9.244;2023-02-28T00:24:43;-2.90;99.90
3940;DHT22;1984;48.312;9.244;2023-02-28T00:27:09;-2.90;99.90
3940;DHT22;1984;48.312;9.244;2023-02-28T00:29:35;-2.90;99.90
3940;DHT22;1984;48.312;9.244;2023-02-28T00:32:01;-2.90;99.90
3940;DHT22;1984;48.312;9.244;2023-02-28T00:34:26;-2.90;99.90
3940;DHT22;1984;48.312;9.244;2023-02-28T00:36:52;-2.90;99.90
3940;DHT22;1984;48.312;9.244;2023-02-28T00:39:18;-2.90;99.90
3940;DHT22;1984;48.312;9.244;2023-02-28T00:41:43;-2.90;99.90
3940;DHT22;1984;48.312;9.244;2023-02-28T00:44:09;-3.00;99.90
3940;DHT22;1984;48.312;9.244;2023-02-28T00:46:34;-2.90;99.90
3940;DHT22;1984;48.312;9.244;2023-02-28T00:49:00;-2.90;99.90
3940;DHT22;1984;48.312;9.244;2023-02-28T00:51:26;-2.90;99.90
3940;DHT22;1984;48.312;9.244;2023-02-28T00:53:51;-2.90;99.90
3940;DHT22;1984;48.312;9.244;2023-02-28T00:56:17;-2.90;99.90
3940;DHT22;1984;48.312;9.244;2023-02-28T00:58:42;-3.00;99.90
3940;DHT22;1984;48.312;9.244;2023-02-28T01:01:08;-2.90;99.90
3940;DHT22;1984;48.312;9.244;2023-02-28T01:03:33;-3.00;99.90
3940;DHT22;1984;48.312;9.244;2023-02-28T01:05:59;-2.90;99.90
3940;DHT22;1984;48.312;9.244;2023-02-28T01:08:24;-3.00;99.90
3940;DHT22;1984;48.312;9.244;2023-02-28T01:10:51;-3.00;99.90
3940;DHT22;1984;48.312;9.244;2023-02-28T01:13:17;-3.00;99.90
3940;DHT22;1984;48.312;9.244;2023-02-28T01:15:50;-3.00;99.90
3940;DHT22;1984;48.312;9.244;2023-02-28T01:18:16;-3.00;99.90
3940;DHT22;1984;48.312;9.244;2023-02-28T01:20:41;-3.00;99.90
3940;DHT22;1984;48.312;9.244;2023-02-28T01:23:07;-3.00;99.90
3940;DHT22;1984;48.312;9.244;2023-02-28T01:25:34;-3.00;99.90
3940;DHT22;1984;48.312;9.244;2023-02-28T01:28:00;-3.00;99.90
3940;DHT22;1984;48.312;9.244;2023-02-28T01:30:25;-3.00;99.90
3940;DHT22;1984;48.312;9.244;2023-02-28T01:32:51;-3.00;99.90
3940;DHT22;1984;48.312;9.244;2023-02-28T01:35:19;-3.00;99.90
3940;DHT22;1984;48.312;9.244;2023-02-28T01:37:44;-3.00;99.90
3940;DHT22;1984;48.312;9.244;2023-02-28T01:40:10;-3.00;99.90
3940;DHT22;1984;48.312;9.244;2023-02-28T01:42:36;-2.90;99.90
3940;DHT22;1984;48.312;9.244;2023-02-28T01:45:22;-3.00;99.90
3940;DHT22;1984;48.312;9.244;2023-02-28T01:47:50;-3.00;99.90
3940;DHT22;1984;48.312;9.244;2023-02-28T01:50:20;-3.00;99.90
3940;DHT22;1984;48.312;9.244;2023-02-28T01:52:47;-3.10;99.90
3940;DHT22;1984;48.312;9.244;2023-02-28T01:55:15;-3.10;99.90
3940;DHT22;1984;48.312;9.244;2023-02-28T01:57:46;-3.10;99.90
3940;DHT22;1984;48.312;9.244;2023-02-28T02:00:15;-3.00;99.90
3940;DHT22;1984;48.312;9.244;2023-02-28T02:02:43;-3.10;99.90
3940;DHT22;1984;48.312;9.244;2023-02-28T02:05:15;-3.10;99.90
3940;DHT22;1984;48.312;9.244;2023-02-28T02:07:43;-3.00;99.90
3940;DHT22;1984;48.312;9.244;2023-02-28T02:10:16;-3.00;99.90
3940;DHT22;1984;48.312;9.244;2023-02-28T02:12:56;-3.00;99.90
3940;DHT22;1984;48.312;9.244;2023-02-28T02:15:46;-2.90;99.90
3940;DHT22;1984;48.312;9.244;2023-02-28T02:20:53;-3.00;99.90
3940;DHT22;1984;48.312;9.244;2023-02-28T02:29:14;-2.90;99.90
3940;DHT22;1984;48.312;9.244;2023-02-28T02:32:18;-3.00;99.90
3940;DHT22;1984;48.312;9.244;2023-02-28T02:35:07;-3.00;99.90
3940;DHT22;1984;48.312;9.244;2023-02-28T02:37:40;-3.00;99.90
3940;DHT22;1984;48.312;9.244;2023-02-28T02:40:13;-3.00;99.90
3940;DHT22;1984;48.312;9.244;2023-02-28T02:42:56;-3.00;99.90
3940;DHT22;1984;48.312;9.244;2023-02-28T02:45:34;-3.00;99.90
3940;DHT22;1984;48.312;9.244;2023-02-28T02:48:03;-3.00;99.90
3940;DHT22;1984;48.312;9.244;2023-02-28T02:50:35;-3.00;99.90
3940;DHT22;1984;48.312;9.244;2023-02-28T02:53:04;-3.10;99.90
3940;DHT22;1984;48.312;9.244;2023-02-28T02:55:34;-3.10;99.90
3940;DHT22;1984;48.312;9.244;2023-02-28T02:58:06;-3.10;99.90
3940;DHT22;1984;48.312;9.244;2023-02-28T03:00:37;-3.10;99.90
3940;DHT22;1984;48.312;9.244;2023-02-28T03:03:04;-3.10;99.90
3940;DHT22;1984;48.312;9.244;2023-02-28T03:05:56;-3.20;99.90
3940;DHT22;1984;48.312;9.244;2023-02-28T03:08:20;-3.20;99.90
3940;DHT22;1984;48.312;9.244;2023-02-28T03:10:48;-3.10;99.90
3940;DHT22;1984;48.312;9.244;2023-02-28T03:16:36;-3.00;99.90
3940;DHT22;1984;48.312;9.244;2023-02-28T03:25:01;-3.10;99.90
3940;DHT22;1984;48.312;9.244;2023-02-28T03:28:02;-3.10;99.90
3940;DHT22;1984;48.312;9.244;2023-02-28T03:30:36;-3.10;99.90
3940;DHT22;1984;48.312;9.244;2023-02-28T03:33:08;-3.10;99.90
3940;DHT22;1984;48.312;9.244;2023-02-28T03:35:45;-3.10;99.90
3940;DHT22;1984;48.312;9.244;2023-02-28T03:41:23;-3.20;99.90
3940;DHT22;1984;48.312;9.244;2023-02-28T03:43:55;-3.10;99.90
3940;DHT22;1984;48.312;9.244;2023-02-28T03:46:25;-3.10;99.90
3940;DHT22;1984;48.312;9.244;2023-02-28T03:49:06;-3.10;99.90
3940;DHT22;1984;48.312;9.244;2023-02-28T03:51:36;-3.10;99.90
3940;DHT22;1984;48.312;9.244;2023-02-28T03:54:19;-3.10;99.90
3940;DHT22;1984;48.312;9.244;2023-02-28T03:56:54;-3.10;99.90
3940;DHT22;1984;48.312;9.244;2023-02-28T03:59:34;-3.10;99.90
3940;DHT22;1984;48.312;9.244;2023-02-28T04:02:02;-3.10;99.90
3940;DHT22;1984;48.312;9.244;2023-02-28T04:04:28;-3.00;99.90
3940;DHT22;1984;48.312;9.244;2023-02-28T04:07:05;-2.90;99.90
3940;DHT22;1984;48.312;9.244;2023-02-28T04:09:31;-3.00;99.90
3940;DHT22;1984;48.312;9.244;2023-02-28T04:11:56;-3.00;99.90
3940;DHT22;1984;48.312;9.244;2023-02-28T04:14:22;-3.00;99.90
3940;DHT22;1984;48.312;9.244;2023-02-28T04:16:48;-3.00;99.90
3940;DHT22;1984;48.312;9.244;2023-02-28T04:19:14;-3.10;99.90
3940;DHT22;1984;48.312;9.244;2023-02-28T04:21:42;-3.10;99.90
3940;DHT22;1984;48.312;9.244;2023-02-28T04:24:10;-3.10;99.90
3940;DHT22;1984;48.312;9.244;2023-02-28T04:26:40;-3.10;99.90
3940;DHT22;1984;48.312;9.244;2023-02-28T04:29:06;-3.10;99.90
3940;DHT22;1984;48.312;9.244;2023-02-28T04:31:33;-3.20;99.90
3940;DHT22;1984;48.312;9.244;2023-02-28T04:33:59;-3.20;99.90
3940;DHT22;1984;48.312;9.244;2023-02-28T04:36:25;-3.10;99.90
3940;DHT22;1984;48.312;9.244;2023-02-28T04:38:50;-3.00;99.90
3940;DHT22;1984;48.312;9.244;2023-02-28T04:41:16;-3.00;99.90
3940;DHT22;1984;48.312;9.244;2023-02-28T04:43:42;-3.00;99.90
3940;DHT22;1984;48.312;9.244;2023-02-28T04:46:07;-3.00;99.90
3940;DHT22;1984;48.312;9.244;2023-02-28T04:48:36;-3.00;99.90
3940;DHT22;1984;48.312;9.244;2023-02-28T04:51:03;-3.00;99.90
3940;DHT22;1984;48.312;9.244;2023-02-28T04:53:29;-3.00;99.90
3940;DHT22;1984;48.312;9.244;2023-02-28T04:55:55;-2.90;99.90
3940;DHT22;1984;48.312;9.244;2023-02-28T04:58:21;-2.90;99.90
3940;DHT22;1984;48.312;9.244;2023-02-28T05:00:51;-2.90;99.90
3940;DHT22;1984;48.312;9.244;2023-02-28T05:03:17;-2.90;99.90
3940;DHT22;1984;48.312;9.244;2023-02-28T05:05:42;-3.00;99.90
3940;DHT22;1984;48.312;9.244;2023-02-28T05:08:08;-3.00;99.90
3940;DHT22;1984;48.312;9.244;2023-02-28T05:10:35;-3.00;99.90
3940;DHT22;1984;48.312;9.244;2023-02-28T05:13:01;-3.10;99.90
3940;DHT22;1984;48.312;9.244;2023-02-28T05:15:26;-3.00;99.90
3940;DHT22;1984;48.312;9.244;2023-02-28T05:17:52;-3.00;99.90
3940;DHT22;1984;48.312;9.244;2023-02-28T05:20:17;-3.10;99.90
3940;DHT22;1984;48.312;9.244;2023-02-28T05:22:43;-3.00;99.90
3940;DHT22;1984;48.312;9.244;2023-02-28T05:25:13;-3.00;99.90
3940;DHT22;1984;48.312;9.244;2023-02-28T05:27:40;-3.00;99.90
3940;DHT22;1984;48.312;9.244;2023-02-28T05:30:08;-2.90;99.90
3940;DHT22;1984;48.312;9.244;2023-02-28T05:32:36;-2.90;99.90
3940;DHT22;1984;48.312;9.244;2023-02-28T05:35:02;-2.80;99.90
3940;DHT22;1984;48.312;9.244;2023-02-28T05:37:28;-2.90;99.90
3940;DHT22;1984;48.312;9.244;2023-02-28T05:39:53;-2.90;99.90
3940;DHT22;1984;48.312;9.244;2023-02-28T05:42:19;-2.90;99.90
3940;DHT22;1984;48.312;9.244;2023-02-28T05:44:44;-2.90;99.90
3940;DHT22;1984;48.312;9.244;2023-02-28T05:47:10;-2.90;99.90
3940;DHT22;1984;48.312;9.244;2023-02-28T05:49:35;-2.90;99.90
3940;DHT22;1984;48.312;9.244;2023-02-28T05:52:01;-3.00;99.90
3940;DHT22;1984;48.312;9.244;2023-02-28T05:54:26;-3.00;99.90
3940;DHT22;1984;48.312;9.244;2023-02-28T05:56:52;-3.00;99.90
3940;DHT22;1984;48.312;9.244;2023-02-28T05:59:17;-3.10;99.90
3940;DHT22;1984;48.312;9.244;2023-02-28T06:01:45;-3.10;99.90
3940;DHT22;1984;48.312;9.244;2023-02-28T06:04:15;-3.10;99.90
3940;DHT22;1984;48.312;9.244;2023-02-28T06:06:52;-3.10;99.90
3940;DHT22;1984;48.312;9.244;2023-02-28T06:09:18;-3.10;99.90
3940;DHT22;1984;48.312;9.244;2023-02-28T06:11:44;-3.00;99.90
3940;DHT22;1984;48.312;9.244;2023-02-28T06:14:15;-3.00;99.90
3940;DHT22;1984;48.312;9.244;2023-02-28T06:16:42;-3.10;99.90
3940;DHT22;1984;48.312;9.244;2023-02-28T06:19:09;-3.00;99.90
3940;DHT22;1984;48.312;9.244;2023-02-28T06:21:34;-3.10;99.90
3940;DHT22;1984;48.312;9.244;2023-02-28T06:24:00;-3.00;99.90
3940;DHT22;1984;48.312;9.244;2023-02-28T06:26:26;-3.00;99.90
3940;DHT22;1984;48.312;9.244;2023-02-28T06:28:51;-3.00;99.90
3940;DHT22;1984;48.312;9.244;2023-02-28T06:31:18;-3.00;99.90
3940;DHT22;1984;48.312;9.244;2023-02-28T06:33:44;-3.00;99.90
3940;DHT22;1984;48.312;9.244;2023-02-28T06:36:11;-3.00;99.90
3940;DHT22;1984;48.312;9.244;2023-02-28T06:38:38;-3.00;99.90
3940;DHT22;1984;48.312;9.244;2023-02-28T06:41:04;-2.90;99.90
3940;DHT22;1984;48.312;9.244;2023-02-28T06:43:33;-2.90;99.90
3940;DHT22;1984;48.312;9.244;2023-02-28T06:46:00;-2.80;99.90
3940;DHT22;1984;48.312;9.244;2023-02-28T06:48:26;-2.80;99.90
3940;DHT22;1984;48.312;9.244;2023-02-28T06:51:00;-2.90;99.90
3940;DHT22;1984;48.312;9.244;2023-02-28T06:53:26;-2.90;99.90
3940;DHT22;1984;48.312;9.244;2023-02-28T06:55:51;-2.80;99.90
3940;DHT22;1984;48.312;9.244;2023-02-28T06:58:17;-2.70;99.90
3940;DHT22;1984;48.312;9.244;2023-02-28T07:00:45;-2.80;99.90
3940;DHT22;1984;48.312;9.244;2023-02-28T07:03:12;-2.80;99.90
3940;DHT22;1984;48.312;9.244;2023-02-28T07:05:39;-2.90;99.90
3940;DHT22;1984;48.312;9.244;2023-02-28T07:08:05;-2.80;99.90
3940;DHT22;1984;48.312;9.244;2023-02-28T07:10:32;-2.90;99.90
3940;DHT22;1984;48.312;9.244;2023-02-28T07:12:58;-3.00;99.90
3940;DHT22;1984;48.312;9.244;2023-02-28T07:15:24;-3.00;99.90
3940;DHT22;1984;48.312;9.244;2023-02-28T07:17:50;-3.00;99.90
3940;DHT22;1984;48.312;9.244;2023-02-28T07:20:15;-3.00;99.90
3940;DHT22;1984;48.312;9.244;2023-02-28T07:22:41;-3.00;99.90
3940;DHT22;1984;48.312;9.244;2023-02-28T07:25:07;-2.90;99.90
3940;DHT22;1984;48.312;9.244;2023-02-28T07:27:33;-2.70;99.90
3940;DHT22;1984;48.312;9.244;2023-02-28T07:29:59;-2.40;99.90
3940;DHT22;1984;48.312;9.244;2023-02-28T07:32:27;-2.10;99.90
3940;DHT22;1984;48.312;9.244;2023-02-28T07:34:53;-1.90;99.90
3940;DHT22;1984;48.312;9.244;2023-02-28T07:37:18;-2.10;99.90
3940;DHT22;1984;48.312;9.244;2023-02-28T07:39:44;-2.30;99.90
3940;DHT22;1984;48.312;9.244;2023-02-28T07:42:10;-2.50;99.90
3940;DHT22;1984;48.312;9.244;2023-02-28T07:44:37;-2.60;99.90
3940;DHT22;1984;48.312;9.244;2023-02-28T07:47:07;-2.60;99.90
3940;DHT22;1984;48.312;9.244;2023-02-28T07:49:33;-2.80;99.90
3940;DHT22;1984;48.312;9.244;2023-02-28T07:51:59;-2.80;99.90
3940;DHT22;1984;48.312;9.244;2023-02-28T07:54:25;-2.90;99.90
3940;DHT22;1984;48.312;9.244;2023-02-28T07:56:50;-2.90;99.90
3940;DHT22;1984;48.312;9.244;2023-02-28T07:59:16;-2.90;99.90
3940;DHT22;1984;48.312;9.244;2023-02-28T08:01:41;-3.00;99.90
3940;DHT22;1984;48.312;9.244;2023-02-28T08:04:09;-3.00;99.90
3940;DHT22;1984;48.312;9.244;2023-02-28T08:06:35;-2.90;99.90
3940;DHT22;1984;48.312;9.244;2023-02-28T08:09:00;-2.90;99.90
3940;DHT22;1984;48.312;9.244;2023-02-28T08:11:26;-2.70;99.90
3940;DHT22;1984;48.312;9.244;2023-02-28T08:13:51;-2.70;99.90
3940;DHT22;1984;48.312;9.244;2023-02-28T08:16:17;-2.70;99.90
3940;DHT22;1984;48.312;9.244;2023-02-28T08:18:50;-2.70;99.90
3940;DHT22;1984;48.312;9.244;2023-02-28T08:21:16;-2.70;99.90
3940;DHT22;1984;48.312;9.244;2023-02-28T08:23:41;-2.80;99.90
3940;DHT22;1984;48.312;9.244;2023-02-28T08:26:07;-2.80;99.90
3940;DHT22;1984;48.312;9.244;2023-02-28T08:28:33;-2.70;99.90
3940;DHT22;1984;48.312;9.244;2023-02-28T08:30:58;-2.70;99.90
3940;DHT22;1984;48.312;9.244;2023-02-28T08:33:25;-2.70;99.90
3940;DHT22;1984;48.312;9.244;2023-02-28T08:35:55;-2.70;99.90
3940;DHT22;1984;48.312;9.244;2023-02-28T08:38:21;-2.70;99.90
3940;DHT22;1984;48.312;9.244;2023-02-28T08:40:47;-2.70;99.90
3940;DHT22;1984;48.312;9.244;2023-02-28T08:43:12;-2.70;99.90
3940;DHT22;1984;48.312;9.244;2023-02-28T08:45:38;-2.70;99.90
3940;DHT22;1984;48.312;9.244;2023-02-28T08:48:04;-2.70;99.90
3940;DHT22;1984;48.312;9.244;2023-02-28T08:50:29;-2.50;99.90
3940;DHT22;1984;48.312;9.244;2023-02-28T08:52:55;-2.50;99.90
3940;DHT22;1984;48.312;9.244;2023-02-28T08:55:20;-2.60;99.90
3940;DHT22;1984;48.312;9.244;2023-02-28T08:57:46;-2.60;99.90
3940;DHT22;1984;48.312;9.244;2023-02-28T09:00:12;-2.50;99.90
3940;DHT22;1984;48.312;9.244;2023-02-28T09:02:39;-2.40;99.90
3940;DHT22;1984;48.312;9.244;2023-02-28T09:05:06;-2.40;99.90
3940;DHT22;1984;48.312;9.244;2023-02-28T09:07:31;-2.40;99.90
3940;DHT22;1984;48.312;9.244;2023-02-28T09:09:57;-2.50;99.90
3940;DHT22;1984;48.312;9.244;2023-02-28T09:12:27;-2.40;99.90
3940;DHT22;1984;48.312;9.244;2023-02-28T09:14:57;-2.50;99.90
3940;DHT22;1984;48.312;9.244;2023-02-28T09:17:22;-2.50;99.90
3940;DHT22;1984;48.312;9.244;2023-02-28T09:19:49;-2.40;99.90
3940;DHT22;1984;48.312;9.244;2023-02-28T09:22:15;-2.30;99.90
3940;DHT22;1984;48.312;9.244;2023-02-28T09:24:41;-2.20;99.90
3940;DHT22;1984;48.312;9.244;2023-02-28T09:27:06;-2.20;99.90
3940;DHT22;1984;48.312;9.244;2023-02-28T09:29:33;-2.30;99.90
3940;DHT22;1984;48.312;9.244;2023-02-28T09:31:59;-2.20;99.90
3940;DHT22;1984;48.312;9.244;2023-02-28T09:34:28;-2.20;99.90
3940;DHT22;1984;48.312;9.244;2023-02-28T09:36:56;-2.10;99.90
3940;DHT22;1984;48.312;9.244;2023-02-28T09:39:22;-2.10;99.90
3940;DHT22;1984;48.312;9.244;2023-02-28T09:41:51;-2.10;99.90
3940;DHT22;1984;48.312;9.244;2023-02-28T09:44:38;-2.10;99.90
3940;DHT22;1984;48.312;9.244;2023-02-28T09:47:13;-2.20;99.90
3940;DHT22;1984;48.312;9.244;2023-02-28T09:49:43;-2.10;99.90
3940;DHT22;1984;48.312;9.244;2023-02-28T09:52:12;-2.10;99.90
3940;DHT22;1984;48.312;9.244;2023-02-28T09:54:39;-2.10;99.90
3940;DHT22;1984;48.312;9.244;2023-02-28T09:57:19;-2.20;99.90
3940;DHT22;1984;48.312;9.244;2023-02-28T10:08:36;-1.70;99.90
3940;DHT22;1984;48.312;9.244;2023-02-28T10:11:07;-1.60;99.90
3940;DHT22;1984;48.312;9.244;2023-02-28T10:13:55;-1.60;99.90
3940;DHT22;1984;48.312;9.244;2023-02-28T10:16:35;-1.50;99.90
3940;DHT22;1984;48.312;9.244;2023-02-28T10:22:15;-1.50;99.90
3940;DHT22;1984;48.312;9.244;2023-02-28T10:24:45;-1.50;99.90
3940;DHT22;1984;48.312;9.244;2023-02-28T10:27:19;-1.50;99.90
3940;DHT22;1984;48.312;9.244;2023-02-28T10:29:51;-1.50;99.90
3940;DHT22;1984;48.312;9.244;2023-02-28T10:32:19;-1.70;99.90
3940;DHT22;1984;48.312;9.244;2023-02-28T10:37:39;-1.60;99.90
3940;DHT22;1984;48.312;9.244;2023-02-28T10:40:06;-1.50;99.90
3940;DHT22;1984;48.312;9.244;2023-02-28T10:42:33;-1.40;99.90
3940;DHT22;1984;48.312;9.244;2023-02-28T10:45:15;-1.40;99.90
3940;DHT22;1984;48.312;9.244;2023-02-28T10:48:02;-1.50;99.90
3940;DHT22;1984;48.312;9.244;2023-02-28T10:50:34;-1.50;99.90
3940;DHT22;1984;48.312;9.244;2023-02-28T10:55:57;-1.50;99.90
3940;DHT22;1984;48.312;9.244;2023-02-28T10:58:25;-1.50;99.90
3940;DHT22;1984;48.312;9.244;2023-02-28T11:00:52;-1.50;99.90
3940;DHT22;1984;48.312;9.244;2023-02-28T11:03:33;-1.50;99.90
3940;DHT22;1984;48.312;9.244;2023-02-28T11:06:08;-1.60;99.90
3940;DHT22;1984;48.312;9.244;2023-02-28T11:08:45;-1.70;99.90
3940;DHT22;1984;48.312;9.244;2023-02-28T11:11:12;-1.60;99.90
3940;DHT22;1984;48.312;9.244;2023-02-28T11:13:37;-1.40;99.90
3940;DHT22;1984;48.312;9.244;2023-02-28T11:16:09;-1.20;99.90
3940;DHT22;1984;48.312;9.244;2023-02-28T11:18:55;-1.20;99.90
3940;DHT22;1984;48.312;9.244;2023-02-28T11:21:29;-1.00;99.90
3940;DHT22;1984;48.312;9.244;2023-02-28T11:24:15;-1.00;99.90
3940;DHT22;1984;48.312;9.244;2023-02-28T11:26:47;-0.90;99.90
3940;DHT22;1984;48.312;9.244;2023-02-28T11:34:30;-0.70;99.90
3940;DHT22;1984;48.312;9.244;2023-02-28T11:36:58;-0.90;99.90
3940;DHT22;1984;48.312;9.244;2023-02-28T11:39:25;-0.80;99.90
3940;DHT22;1984;48.312;9.244;2023-02-28T11:50:16;0.40;99.90
3940;DHT22;1984;48.312;9.244;2023-02-28T11:52:57;0.70;99.90
3940;DHT22;1984;48.312;9.244;2023-02-28T11:55:45;0.80;99.90
3940;DHT22;1984;48.312;9.244;2023-02-28T12:04:22;0.90;99.90
3940;DHT22;1984;48.312;9.244;2023-02-28T12:14:54;1.60;99.90
3940;DHT22;1984;48.312;9.244;2023-02-28T12:17:56;1.90;99.90
3940;DHT22;1984;48.312;9.244;2023-02-28T12:20:38;2.00;99.90
3940;DHT22;1984;48.312;9.244;2023-02-28T12:23:36;2.10;99.90
3940;DHT22;1984;48.312;9.244;2023-02-28T12:26:19;2.00;99.90
3940;DHT22;1984;48.312;9.244;2023-02-28T12:28:50;2.20;99.90
3940;DHT22;1984;48.312;9.244;2023-02-28T12:31:20;2.10;99.90
3940;DHT22;1984;48.312;9.244;2023-02-28T12:33:52;2.00;99.90
3940;DHT22;1984;48.312;9.244;2023-02-28T12:36:20;2.00;99.90
3940;DHT22;1984;48.312;9.244;2023-02-28T12:38:49;1.60;99.90
3940;DHT22;1984;48.312;9.244;2023-02-28T12:41:19;1.30;99.90
3940;DHT22;1984;48.312;9.244;2023-02-28T12:43:55;1.30;99.90
3940;DHT22;1984;48.312;9.244;2023-02-28T12:46:29;1.20;99.90
3940;DHT22;1984;48.312;9.244;2023-02-28T12:48:56;1.40;99.90
3940;DHT22;1984;48.312;9.244;2023-02-28T12:51:25;1.50;99.90
3940;DHT22;1984;48.312;9.244;2023-02-28T12:56:55;1.40;99.90
3940;DHT22;1984;48.312;9.244;2023-02-28T12:59:40;1.40;99.90
3940;DHT22;1984;48.312;9.244;2023-02-28T13:02:45;1.40;99.90
3940;DHT22;1984;48.312;9.244;2023-02-28T13:10:48;1.50;99.90
3940;DHT22;1984;48.312;9.244;2023-02-28T13:13:24;1.70;99.90
3940;DHT22;1984;48.312;9.244;2023-02-28T13:16:06;1.70;99.90
3940;DHT22;1984;48.312;9.244;2023-02-28T13:18:44;1.70;99.90
3940;DHT22;1984;48.312;9.244;2023-02-28T13:26:21;2.00;99.90
3940;DHT22;1984;48.312;9.244;2023-02-28T13:42:32;1.50;99.90
3940;DHT22;1984;48.312;9.244;2023-02-28T14:04:50;1.90;99.90
3940;DHT22;1984;48.312;9.244;2023-02-28T14:07:26;1.90;99.90
3940;DHT22;1984;48.312;9.244;2023-02-28T14:10:03;2.00;99.90
3940;DHT22;1984;48.312;9.244;2023-02-28T14:17:59;2.20;99.90
3940;DHT22;1984;48.312;9.244;2023-02-28T14:20:29;2.30;99.90
3940;DHT22;1984;48.312;9.244;2023-02-28T14:23:03;2.30;99.90
3940;DHT22;1984;48.312;9.244;2023-02-28T14:25:43;2.40;99.90
3940;DHT22;1984;48.312;9.244;2023-02-28T14:31:09;2.60;99.90
3940;DHT22;1984;48.312;9.244;2023-02-28T14:34:11;2.70;99.90
3940;DHT22;1984;48.312;9.244;2023-02-28T14:36:43;2.80;99.90
3940;DHT22;1984;48.312;9.244;2023-02-28T14:39:17;2.80;99.90
3940;DHT22;1984;48.312;9.244;2023-02-28T14:41:44;2.70;99.90
3940;DHT22;1984;48.312;9.244;2023-02-28T14:44:16;2.60;99.90
3940;DHT22;1984;48.312;9.244;2023-02-28T14:46:42;2.40;99.90
3940;DHT22;1984;48.312;9.244;2023-02-28T14:49:26;2.40;99.90
3940;DHT22;1984;48.312;9.244;2023-02-28T14:52:15;2.40;99.90
3940;DHT22;1984;48.312;9.244;2023-02-28T14:54:43;2.40;99.90
3940;DHT22;1984;48.312;9.244;2023-02-28T14:57:30;2.50;99.90
3940;DHT22;1984;48.312;9.244;2023-02-28T14:59:59;2.50;99.90
3940;DHT22;1984;48.312;9.244;2023-02-28T15:02:26;2.40;99.90
3940;DHT22;1984;48.312;9.244;2023-02-28T15:04:56;2.40;99.90
3940;DHT22;1984;48.312;9.244;2023-02-28T15:07:23;2.40;99.90
3940;DHT22;1984;48.312;9.244;2023-02-28T15:10:32;2.50;99.90
3940;DHT22;1984;48.312;9.244;2023-02-28T15:13:01;2.40;99.90
3940;DHT22;1984;48.312;9.244;2023-02-28T15:20:54;2.90;99.90
3940;DHT22;1984;48.312;9.244;2023-02-28T15:23:21;2.90;99.90
3940;DHT22;1984;48.312;9.244;2023-02-28T15:25:47;2.90;99.90
3940;DHT22;1984;48.312;9.244;2023-02-28T15:28:18;2.80;99.90
3940;DHT22;1984;48.312;9.244;2023-02-28T15:30:59;2.70;99.90
3940;DHT22;1984;48.312;9.244;2023-02-28T15:33:30;2.50;99.90
3940;DHT22;1984;48.312;9.244;2023-02-28T15:36:12;2.30;99.90
3940;DHT22;1984;48.312;9.244;2023-02-28T15:38:38;2.20;99.90
3940;DHT22;1984;48.312;9.244;2023-02-28T15:41:04;2.20;99.90
3940;DHT22;1984;48.312;9.244;2023-02-28T15:43:36;2.00;99.90
3940;DHT22;1984;48.312;9.244;2023-02-28T15:46:10;2.00;99.90
3940;DHT22;1984;48.312;9.244;2023-02-28T15:48:54;1.90;99.90
3940;DHT22;1984;48.312;9.244;2023-02-28T15:51:26;1.90;99.90
3940;DHT22;1984;48.312;9.244;2023-02-28T15:54:04;1.90;99.90
3940;DHT22;1984;48.312;9.244;2023-02-28T15:56:35;1.90;99.90
3940;DHT22;1984;48.312;9.244;2023-02-28T15:59:06;1.90;99.90
3940;DHT22;1984;48.312;9.244;2023-02-28T16:01:37;1.90;99.90
3940;DHT22;1984;48.312;9.244;2023-02-28T16:04:14;1.80;99.90
3940;DHT22;1984;48.312;9.244;2023-02-28T16:07:00;1.70;99.90
3940;DHT22;1984;48.312;9.244;2023-02-28T16:09:26;1.80;99.90
3940;DHT22;1984;48.312;9.244;2023-02-28T16:11:54;1.70;99.90
3940;DHT22;1984;48.312;9.244;2023-02-28T16:14:23;1.70;99.90
3940;DHT22;1984;48.312;9.244;2023-02-28T16:16:54;1.70;99.90
3940;DHT22;1984;48.312;9.244;2023-02-28T16:19:21;1.80;99.90
3940;DHT22;1984;48.312;9.244;2023-02-28T16:21:47;1.70;99.90
3940;DHT22;1984;48.312;9.244;2023-02-28T16:24:13;1.70;99.90
3940;DHT22;1984;48.312;9.244;2023-02-28T16:26:40;1.60;99.90
3940;DHT22;1984;48.312;9.244;2023-02-28T16:29:06;1.50;99.90
3940;DHT22;1984;48.312;9.244;2023-02-28T16:31:36;1.40;99.90
3940;DHT22;1984;48.312;9.244;2023-02-28T16:34:02;1.40;99.90
3940;DHT22;1984;48.312;9.244;2023-02-28T16:36:29;1.30;99.90
3940;DHT22;1984;48.312;9.244;2023-02-28T16:38:56;1.30;99.90
3940;DHT22;1984;48.312;9.244;2023-02-28T16:41:24;1.20;99.90
3940;DHT22;1984;48.312;9.244;2023-02-28T16:43:53;1.10;99.90
3940;DHT22;1984;48.312;9.244;2023-02-28T16:46:19;1.10;99.90
3940;DHT22;1984;48.312;9.244;2023-02-28T16:48:46;1.10;99.90
3940;DHT22;1984;48.312;9.244;2023-02-28T16:51:15;1.10;99.90
3940;DHT22;1984;48.312;9.244;2023-02-28T16:53:42;1.00;99.90
3940;DHT22;1984;48.312;9.244;2023-02-28T16:56:23;1.00;99.90
3940;DHT22;1984;48.312;9.244;2023-02-28T16:58:50;0.90;99.90
3940;DHT22;1984;48.312;9.244;2023-02-28T17:01:17;0.90;99.90
3940;DHT22;1984;48.312;9.244;2023-02-28T17:03:48;0.90;99.90
3940;DHT22;1984;48.312;9.244;2023-02-28T17:06:25;0.80;99.90
3940;DHT22;1984;48.312;9.244;2023-02-28T17:08:53;0.70;99.90
3940;DHT22;1984;48.312;9.244;2023-02-28T17:11:20;0.70;99.90
3940;DHT22;1984;48.312;9.244;2023-02-28T17:13:45;0.90;99.90
3940;DHT22;1984;48.312;9.244;2023-02-28T17:16:36;0.90;99.90
3940;DHT22;1984;48.312;9.244;2023-02-28T17:19:05;1.00;99.90
3940;DHT22;1984;48.312;9.244;2023-02-28T17:21:32;1.10;99.90
3940;DHT22;1984;48.312;9.244;2023-02-28T17:23:58;1.10;99.90
3940;DHT22;1984;48.312;9.244;2023-02-28T17:26:24;1.10;99.90
3940;DHT22;1984;48.312;9.244;2023-02-28T17:28:52;1.10;99.90
3940;DHT22;1984;48.312;9.244;2023-02-28T17:31:19;1.10;99.90
3940;DHT22;1984;48.312;9.244;2023-02-28T17:33:45;0.90;99.90
3940;DHT22;1984;48.312;9.244;2023-02-28T17:36:15;0.80;99.90
3940;DHT22;1984;48.312;9.244;2023-02-28T17:38:41;0.80;99.90
3940;DHT22;1984;48.312;9.244;2023-02-28T17:41:10;0.80;99.90
3940;DHT22;1984;48.312;9.244;2023-02-28T17:43:36;0.70;99.90
3940;DHT22;1984;48.312;9.244;2023-02-28T17:46:01;0.70;99.90
3940;DHT22;1984;48.312;9.244;2023-02-28T17:48:27;0.60;99.90
3940;DHT22;1984;48.312;9.244;2023-02-28T17:50:53;0.50;99.90
3940;DHT22;1984;48.312;9.244;2023-02-28T17:53:19;0.50;99.90
3940;DHT22;1984;48.312;9.244;2023-02-28T17:55:44;0.40;99.90
3940;DHT22;1984;48.312;9.244;2023-02-28T17:58:11;0.40;99.90
3940;DHT22;1984;48.312;9.244;2023-02-28T18:00:39;0.40;99.90
3940;DHT22;1984;48.312;9.244;2023-02-28T18:03:05;0.40;99.90
3940;DHT22;1984;48.312;9.244;2023-02-28T18:05:31;0.40;99.90
3940;DHT22;1984;48.312;9.244;2023-02-28T18:07:56;0.30;99.90
3940;DHT22;1984;48.312;9.244;2023-02-28T18:10:22;0.30;99.90
3940;DHT22;1984;48.312;9.244;2023-02-28T18:12:49;0.30;99.90
3940;DHT22;1984;48.312;9.244;2023-02-28T18:15:17;0.20;99.90
3940;DHT22;1984;48.312;9.244;2023-02-28T18:17:43;0.10;99.90
3940;DHT22;1984;48.312;9.244;2023-02-28T18:20:10;0.10;99.90
3940;DHT22;1984;48.312;9.244;2023-02-28T18:22:36;0.10;99.90
3940;DHT22;1984;48.312;9.244;2023-02-28T18:25:04;0.00;99.90
3940;DHT22;1984;48.312;9.244;2023-02-28T18:27:30;0.00;99.90
3940;DHT22;1984;48.312;9.244;2023-02-28T18:29:55;0.10;99.90